Time;durP1;ratioP1;P1;durP2;ratioP2;P2;SDS_P1;SDS_P2;PMS_P1;PMS_P2;Temp;Humidity;BMP_temperature;BMP_pressure;BME280_temperature;BME280_humidity;BME280_pressure;Samples;Min_cycle;Max_cycle;Signal;HPM_P1;HPM_P2
2023/02/23 00:01:12;;;;;;;91.35;59.00;;;;;;;8.85;100.00;100534.91;4996128;28;20065;-80
2023/02/23 00:03:39;;;;;;;86.00;55.70;;;;;;;8.96;100.00;100534.69;4996818;28;20069;-80
2023/02/23 00:06:06;;;;;;;91.72;55.33;;;;;;;8.97;100.00;100536.34;4998636;28;20051;-82
2023/02/23 00:08:34;;;;;;;81.82;56.05;;;;;;;8.97;100.00;100538.13;4999160;28;20077;-83
2023/02/23 00:11:01;;;;;;;82.50;55.10;;;;;;;9.01;100.00;100534.22;4996184;28;20058;-80
2023/02/23 00:13:30;;;;;;;75.32;53.03;;;;;;;8.99;100.00;100536.97;4995484;28;20054;-79
2023/02/23 00:15:57;;;;;;;83.10;55.92;;;;;;;8.91;100.00;100541.31;4994003;28;20093;-81
2023/02/23 00:18:29;;;;;;;82.47;55.75;;;;;;;8.91;100.00;100539.53;4992172;28;20116;-80
2023/02/23 00:20:57;;;;;;;80.07;54.95;;;;;;;8.96;100.00;100537.31;4995630;28;20054;-81
2023/02/23 00:23:26;;;;;;;76.18;53.55;;;;;;;8.98;100.00;100543.16;4995582;28;20056;-81
2023/02/23 00:25:53;;;;;;;77.75;55.15;;;;;;;8.99;100.00;100536.97;5005258;28;20102;-81
2023/02/23 00:28:19;;;;;;;80.28;55.90;;;;;;;8.99;100.00;100539.59;4998202;28;20074;-81
2023/02/23 00:30:47;;;;;;;78.85;54.90;;;;;;;8.95;100.00;100527.84;4993149;28;20128;-81
2023/02/23 00:33:14;;;;;;;74.28;53.83;;;;;;;8.96;100.00;100537.31;4990401;28;20113;-82
2023/02/23 00:35:41;;;;;;;79.45;54.72;;;;;;;8.90;100.00;100537.91;5000783;28;20054;-81
2023/02/23 00:38:08;;;;;;;79.57;55.95;;;;;;;8.85;100.00;100534.91;4998378;28;20082;-81
2023/02/23 00:40:34;;;;;;;78.18;55.42;;;;;;;8.85;100.00;100534.91;4998143;28;20089;-81
2023/02/23 00:43:01;;;;;;;80.55;55.70;;;;;;;8.85;100.00;100524.47;5000770;28;20089;-82
2023/02/23 00:45:29;;;;;;;91.97;58.92;;;;;;;8.85;100.00;100516.63;4997468;28;20414;-82
2023/02/23 00:47:57;;;;;;;88.40;55.70;;;;;;;8.88;100.00;100523.34;4997210;28;20046;-81
2023/02/23 00:50:24;;;;;;;84.82;57.78;;;;;;;8.89;100.00;100527.59;4996756;28;20146;-83
2023/02/23 00:52:51;;;;;;;82.30;56.35;;;;;;;8.92;100.00;100528.13;4996770;28;20398;-82
2023/02/23 00:55:19;;;;;;;80.70;55.38;;;;;;;8.96;100.00;100520.84;4995909;28;20089;-80
2023/02/23 00:57:45;;;;;;;80.20;54.85;;;;;;;8.95;100.00;100514.78;4998988;28;20162;-80
2023/02/23 01:00:17;;;;;;;82.53;53.80;;;;;;;8.94;100.00;100530.59;4998208;28;20046;-79
2023/02/23 01:02:44;;;;;;;81.95;55.63;;;;;;;8.88;100.00;100521.56;4991899;28;20046;-79
2023/02/23 01:05:12;;;;;;;80.78;54.22;;;;;;;8.96;100.00;100526.88;4998867;28;20154;-80
2023/02/23 01:07:39;;;;;;;81.32;55.30;;;;;;;8.90;100.00;100522.25;4999332;28;20073;-80
2023/02/23 01:10:17;;;;;;;86.15;56.70;;;;;;;8.88;100.00;100534.63;5000757;28;20074;-80
2023/02/23 01:12:46;;;;;;;81.07;56.40;;;;;;;8.83;100.00;100518.56;4993388;28;20054;-80
2023/02/23 01:15:12;;;;;;;83.63;55.45;;;;;;;8.86;100.00;100525.28;5001281;28;20192;-80
2023/02/23 01:17:39;;;;;;;82.57;57.67;;;;;;;8.86;100.00;100531.31;5000054;28;20482;-80
2023/02/23 01:20:14;;;;;;;84.30;59.03;;;;;;;8.89;100.00;100525.81;4998797;28;20081;-80
2023/02/23 01:22:42;;;;;;;87.10;58.78;;;;;;;8.86;100.00;100518.28;4998485;28;20097;-79
2023/02/23 01:25:11;;;;;;;85.95;58.28;;;;;;;8.85;100.00;100523.66;4998095;28;20133;-80
2023/02/23 01:27:38;;;;;;;85.72;57.25;;;;;;;8.84;100.00;100528.03;4998996;28;20054;-80
2023/02/23 01:30:06;;;;;;;85.70;57.35;;;;;;;8.87;100.00;100519.91;4999910;28;20153;-81
2023/02/23 01:32:34;;;;;;;85.03;56.83;;;;;;;8.86;100.00;100526.09;5000208;28;20050;-81
2023/02/23 01:35:03;;;;;;;84.95;57.45;;;;;;;8.85;100.00;100524.47;5000561;28;20480;-82
2023/02/23 01:37:29;;;;;;;82.20;56.25;;;;;;;8.87;100.00;100522.53;4999812;28;20069;-81
2023/02/23 01:39:57;;;;;;;83.07;57.45;;;;;;;8.93;100.00;100528.94;5006417;28;20093;-81
2023/02/23 01:42:24;;;;;;;82.15;56.08;;;;;;;8.91;100.00;100531.72;4998841;28;20137;-81
2023/02/23 01:45:21;;;;;;;81.97;55.90;;;;;;;8.92;100.00;100524.69;4999165;28;20081;-81
2023/02/23 01:47:48;;;;;;;81.60;55.38;;;;;;;8.94;100.00;100536.63;4986831;28;20375;-80
2023/02/23 01:50:16;;;;;;;87.80;58.95;;;;;;;8.90;100.00;100521.41;5003171;28;20076;-79
2023/02/23 01:52:43;;;;;;;86.68;56.88;;;;;;;8.89;100.00;100531.03;4993991;28;20133;-82
2023/02/23 01:55:13;;;;;;;78.07;56.22;;;;;;;8.94;100.00;100535.81;5003637;28;20142;-81
2023/02/23 01:57:42;;;;;;;76.82;54.97;;;;;;;8.97;100.00;100527.69;5005690;28;20070;-81
2023/02/23 02:00:12;;;;;;;78.40;54.25;;;;;;;8.91;100.00;100528.28;5006188;28;20054;-81
2023/02/23 02:02:39;;;;;;;72.53;52.10;;;;;;;8.97;100.00;100528.50;5005731;28;20058;-80
2023/02/23 02:05:12;;;;;;;75.88;54.03;;;;;;;8.93;100.00;100524.56;5004104;28;20050;-79
2023/02/23 02:07:43;;;;;;;;;;;;;;;8.92;100.00;100520.31;4993597;28;20058;-80
2023/02/23 02:12:59;;;;;;;88.32;54.63;;;;;;;8.87;100.00;100522.53;4991789;28;20047;-80
2023/02/23 02:15:31;;;;;;;82.80;55.97;;;;;;;8.89;100.00;100520.59;4997389;28;20336;-79
2023/02/23 02:18:07;;;;;;;83.55;54.15;;;;;;;8.86;100.00;100510.44;4996250;28;20496;-81
2023/02/23 02:21:10;;;;;;;85.38;56.30;;;;;;;8.84;100.00;100511.56;4997034;28;20050;-81
2023/02/23 02:24:12;;;;;;;84.25;56.85;;;;;;;8.79;100.00;100519.84;4999939;28;20050;-79
2023/02/23 02:26:52;;;;;;;79.65;55.78;;;;;;;8.78;100.00;100520.81;4988717;28;20077;-80
2023/02/23 02:29:54;;;;;;;87.18;57.03;;;;;;;8.79;100.00;100519.84;4999475;28;20081;-80
2023/02/23 02:32:55;;;;;;;87.97;57.63;;;;;;;8.80;100.00;100515.44;5001893;28;20077;-81
2023/02/23 02:35:59;;;;;;;85.93;59.20;;;;;;;8.80;100.00;100511.03;4995389;28;20054;-81
2023/02/23 02:38:41;;;;;;;80.95;57.05;;;;;;;8.81;100.00;100517.09;4999251;28;20133;-82
2023/02/23 02:41:20;;;;;;;84.03;56.60;;;;;;;8.84;100.00;100512.38;5000287;28;20112;-79
2023/02/23 02:43:51;;;;;;;85.72;58.40;;;;;;;8.82;100.00;100514.31;4991361;28;20328;-80
2023/02/23 02:46:22;;;;;;;81.07;56.65;;;;;;;8.82;100.00;100511.72;4996847;28;20130;-79
2023/02/23 02:48:59;;;;;;;86.80;57.17;;;;;;;8.84;100.00;100516.78;4999352;28;20129;-79
2023/02/23 02:51:30;;;;;;;77.88;54.60;;;;;;;8.89;100.00;100515.38;5000686;28;20466;-80
2023/02/23 02:54:09;;;;;;;82.05;56.25;;;;;;;8.85;100.00;100515.81;4997843;28;20064;-79
2023/02/23 02:56:39;;;;;;;84.32;57.78;;;;;;;8.83;100.00;100508.13;4997859;28;20505;-80
2023/02/23 04:18:13;;;;;;;86.03;57.97;;;;;;;8.56;100.00;100547.28;4990960;28;20074;-79
2023/02/23 04:20:40;;;;;;;85.13;58.15;;;;;;;8.56;100.00;100547.28;4993280;28;20125;-78
2023/02/23 04:23:06;;;;;;;85.57;58.10;;;;;;;8.61;100.00;100552.88;4995393;28;20096;-79
2023/02/23 04:25:33;;;;;;;84.88;58.63;;;;;;;8.58;100.00;100548.78;4994814;28;20081;-80
2023/02/23 04:27:59;;;;;;;84.82;59.15;;;;;;;8.57;100.00;100552.34;4994039;28;20076;-79
2023/02/23 04:30:27;;;;;;;85.82;59.92;;;;;;;8.58;100.00;100558.38;4991073;28;20129;-79
2023/02/23 04:32:53;;;;;;;86.82;59.50;;;;;;;8.57;100.00;100556.75;4994155;28;20050;-79
2023/02/23 04:35:22;;;;;;;85.90;58.78;;;;;;;8.56;100.00;100549.88;4996043;28;20571;-81
2023/02/23 04:37:49;;;;;;;83.93;60.03;;;;;;;8.55;100.00;100559.50;4998985;28;20043;-80
2023/02/23 04:40:15;;;;;;;84.43;58.78;;;;;;;8.49;100.00;100552.28;4999700;28;20208;-80
2023/02/23 04:42:42;;;;;;;86.65;58.10;;;;;;;8.53;100.00;100555.38;5000253;28;20050;-81
2023/02/23 04:45:10;;;;;;;83.10;58.75;;;;;;;8.54;100.00;100563.06;4998871;28;20154;-79
2023/02/23 04:47:37;;;;;;;81.93;57.60;;;;;;;8.52;100.00;100561.56;5000684;28;20074;-81
2023/02/23 04:50:04;;;;;;;89.30;61.13;;;;;;;8.51;100.00;100560.75;5002067;28;20182;-80
2023/02/23 04:52:33;;;;;;;89.00;59.15;;;;;;;8.52;100.00;100559.78;5004473;28;20062;-80
2023/02/23 04:55:00;;;;;;;90.47;60.75;;;;;;;8.51;100.00;100562.53;4999834;28;20066;-79
2023/02/23 04:57:27;;;;;;;88.70;60.60;;;;;;;8.48;100.00;100562.84;4999645;28;20054;-80
2023/02/23 04:59:54;;;;;;;95.28;62.33;;;;;;;8.45;100.00;100563.13;4999698;28;20105;-79
2023/02/23 05:02:21;;;;;;;95.78;63.10;;;;;;;8.45;100.00;100561.34;4996225;28;20137;-80
2023/02/23 05:04:48;;;;;;;101.28;63.55;;;;;;;8.42;100.00;100569.47;4995168;28;20146;-80
2023/02/23 05:07:14;;;;;;;94.57;63.13;;;;;;;8.38;100.00;100562.88;4993925;28;20113;-79
2023/02/23 05:09:42;;;;;;;98.55;62.95;;;;;;;8.42;100.00;100568.63;4997328;28;20097;-80
2023/02/23 05:12:09;;;;;;;98.90;62.75;;;;;;;8.37;100.00;100576.88;4997128;28;20108;-80
2023/02/23 05:14:35;;;;;;;98.28;64.00;;;;;;;8.44;100.00;100577.13;4998303;28;20110;-79
2023/02/23 05:17:02;;;;;;;102.07;62.53;;;;;;;8.39;100.00;100576.75;4999276;28;20081;-80
2023/02/23 05:19:29;;;;;;;100.47;62.30;;;;;;;8.44;100.00;100577.13;4996439;28;20196;-80
2023/02/23 05:21:55;;;;;;;99.13;63.13;;;;;;;8.46;100.00;100570.81;4995330;28;20046;-80
2023/02/23 05:24:22;;;;;;;101.88;64.20;;;;;;;8.41;100.00;100578.25;4993765;28;20137;-78
2023/02/23 05:26:50;;;;;;;102.45;63.88;;;;;;;8.36;100.00;100574.41;5009675;23;20047;-78
2023/02/23 05:29:18;;;;;;;111.10;66.82;;;;;;;8.38;100.00;100582.91;5004417;28;20137;-76
2023/02/23 05:31:44;;;;;;;107.20;66.00;;;;;;;8.43;100.00;100578.09;5005241;28;20042;-77
2023/02/23 05:34:11;;;;;;;105.82;65.32;;;;;;;8.39;100.00;100574.13;5004915;28;20090;-77
2023/02/23 05:36:38;;;;;;;107.88;65.13;;;;;;;8.31;100.00;100580.84;5003034;28;20089;-77
2023/02/23 05:39:06;;;;;;;104.50;62.92;;;;;;;8.29;100.00;100577.56;5005427;28;20050;-77
2023/02/23 05:41:32;;;;;;;107.35;64.97;;;;;;;8.20;100.00;100581.00;4997859;28;20139;-77
2023/02/23 05:44:01;;;;;;;104.07;63.92;;;;;;;8.26;100.00;100574.41;5006934;28;20453;-76
2023/02/23 05:46:28;;;;;;;108.28;64.22;;;;;;;8.25;100.00;100578.81;5003805;28;20378;-78
2023/02/23 05:48:57;;;;;;;99.78;62.85;;;;;;;8.28;100.00;100578.53;5002314;28;20053;-79
2023/02/23 05:51:23;;;;;;;98.70;63.03;;;;;;;8.24;100.00;100584.97;4995916;28;20054;-76
2023/02/23 05:53:50;;;;;;;97.32;61.63;;;;;;;8.24;100.00;100577.16;5002874;28;20096;-77
2023/02/23 05:56:19;;;;;;;93.47;58.90;;;;;;;8.24;100.00;100586.78;5005086;28;20081;-79
2023/02/23 05:58:46;;;;;;;98.30;60.85;;;;;;;8.24;100.00;100571.94;5002278;28;20515;-77
2023/02/23 06:01:16;;;;;;;95.50;60.67;;;;;;;8.28;100.00;100581.13;5001548;28;20070;-78
2023/02/23 06:03:42;;;;;;;94.97;58.60;;;;;;;8.27;100.00;100591.69;4994201;28;20042;-79
2023/02/23 06:06:09;;;;;;;95.35;60.90;;;;;;;8.30;100.00;100592.25;5001776;28;20141;-77
2023/02/23 06:08:41;;;;;;;91.70;59.13;;;;;;;8.32;100.00;100590.34;5003708;28;20050;-76
2023/02/23 06:11:08;;;;;;;95.18;60.15;;;;;;;8.35;100.00;100594.44;5000067;28;20534;-77
2023/02/23 06:13:35;;;;;;;96.10;59.33;;;;;;;8.32;100.00;100594.69;5009349;28;20046;-77
2023/02/23 06:16:02;;;;;;;97.97;61.00;;;;;;;8.37;100.00;100591.72;5008819;28;20085;-79
2023/02/23 06:18:30;;;;;;;92.20;59.05;;;;;;;8.24;100.00;100584.97;5011091;28;20065;-79
2023/02/23 06:20:59;;;;;;;100.82;61.63;;;;;;;8.20;100.00;100588.84;5007086;28;20050;-78
2023/02/23 06:23:26;;;;;;;94.35;61.50;;;;;;;8.26;100.00;100596.09;5007950;28;20092;-79
2023/02/23 06:25:53;;;;;;;92.63;60.25;;;;;;;8.21;100.00;100587.06;5010249;28;20069;-77
2023/02/23 06:28:19;;;;;;;95.13;61.28;;;;;;;8.19;100.00;100589.78;5010111;28;20046;-76
2023/02/23 06:30:47;;;;;;;102.82;62.75;;;;;;;8.22;100.00;100599.94;5010240;28;20540;-78
2023/02/23 06:33:14;;;;;;;96.50;62.03;;;;;;;8.20;100.00;100607.09;4996485;28;20082;-77
2023/02/23 06:35:42;;;;;;;97.75;61.05;;;;;;;8.17;100.00;100607.34;5010378;28;20084;-77
2023/02/23 06:38:09;;;;;;;107.07;65.60;;;;;;;8.16;100.00;100603.09;5010685;28;20078;-77
2023/02/23 06:40:35;;;;;;;98.72;62.53;;;;;;;8.16;100.00;100612.72;5009817;28;20077;-79
2023/02/23 06:43:02;;;;;;;102.88;63.25;;;;;;;8.14;100.00;100612.03;5011331;28;20046;-79
2023/02/23 06:45:30;;;;;;;106.10;64.13;;;;;;;8.13;100.00;100615.59;5002743;28;20402;-78
2023/02/23 06:47:57;;;;;;;110.65;66.07;;;;;;;8.14;100.00;100622.47;4998431;28;20112;-78
2023/02/23 06:50:23;;;;;;;102.30;62.83;;;;;;;8.12;100.00;100625.19;4998190;28;20134;-78
2023/02/23 06:52:51;;;;;;;102.10;61.58;;;;;;;8.17;100.00;100627.38;4997205;28;20501;-78
2023/02/23 06:55:18;;;;;;;109.07;63.25;;;;;;;8.14;100.00;100622.47;4999119;28;20143;-79
2023/02/23 06:58:26;;;;;;;113.95;64.75;;;;;;;8.17;100.00;100627.38;5001992;28;20046;-77
2023/02/23 07:00:55;;;;;;;104.03;64.25;;;;;;;8.19;100.00;100633.28;4999039;28;20050;-78
2023/02/23 07:03:22;;;;;;;105.75;64.47;;;;;;;8.21;100.00;100639.19;5007340;28;20073;-80
2023/02/23 07:05:49;;;;;;;107.15;63.88;;;;;;;8.22;100.00;100646.88;4997880;28;20084;-79
2023/02/23 07:08:18;;;;;;;107.30;65.03;;;;;;;8.17;100.00;100643.84;5007701;28;20056;-78
2023/02/23 07:10:44;;;;;;;112.78;66.47;;;;;;;8.20;100.00;100646.19;4999545;28;20084;-79
2023/02/23 07:13:11;;;;;;;113.35;64.43;;;;;;;8.20;100.00;100651.41;5006819;28;20089;-79
2023/02/23 07:15:39;;;;;;;111.72;65.55;;;;;;;8.14;100.00;100651.94;5007934;28;20165;-78
2023/02/23 07:18:06;;;;;;;108.97;64.60;;;;;;;8.18;100.00;100661.13;5005239;28;20110;-79
2023/02/23 07:20:34;;;;;;;114.53;66.35;;;;;;;8.20;100.00;100656.59;5006998;28;20110;-78
2023/02/23 07:23:01;;;;;;;105.90;65.25;;;;;;;8.22;100.00;100652.06;4999853;28;20129;-77
2023/02/23 07:25:29;;;;;;;112.60;64.45;;;;;;;8.25;100.00;100657.00;5003491;28;20192;-76
2023/02/23 07:27:57;;;;;;;105.65;63.90;;;;;;;8.28;100.00;100666.34;5000682;28;20070;-76
2023/02/23 07:30:25;;;;;;;102.13;62.53;;;;;;;8.21;100.00;100665.25;5000670;28;20085;-78
2023/02/23 07:32:58;;;;;;;100.97;63.00;;;;;;;8.28;100.00;100661.94;5005847;28;20542;-80
2023/02/23 07:35:25;;;;;;;102.03;61.00;;;;;;;8.24;100.00;100663.19;5007888;28;20104;-79
2023/02/23 07:37:56;;;;;;;96.47;59.60;;;;;;;8.24;100.00;100665.78;4996182;28;20057;-78
2023/02/23 07:40:23;;;;;;;98.13;61.15;;;;;;;8.32;100.00;100668.56;4993672;28;20046;-78
2023/02/23 07:42:51;;;;;;;97.72;59.28;;;;;;;8.24;100.00;100671.00;4996957;28;20134;-79
2023/02/23 07:45:18;;;;;;;95.30;59.03;;;;;;;8.24;100.00;100671.00;4995746;28;20081;-78
2023/02/23 07:47:45;;;;;;;93.68;59.33;;;;;;;8.23;100.00;100677.19;4991530;28;20086;-77
2023/02/23 07:50:13;;;;;;;89.22;57.40;;;;;;;8.25;100.00;100675.25;4996985;28;20102;-77
2023/02/23 07:52:41;;;;;;;90.60;56.42;;;;;;;8.32;100.00;100670.31;4995609;28;20050;-77
2023/02/23 07:55:09;;;;;;;90.82;56.83;;;;;;;8.31;100.00;100677.31;4995967;28;20129;-79
2023/02/23 07:57:36;;;;;;;86.07;55.40;;;;;;;8.32;100.00;100686.81;4991724;28;20526;-77
2023/02/23 08:00:06;;;;;;;89.80;56.03;;;;;;;8.32;100.00;100680.75;4995634;28;20054;-77
2023/02/23 08:02:33;;;;;;;90.18;55.90;;;;;;;8.37;100.00;100678.56;4995167;28;20070;-78
2023/02/23 08:04:59;;;;;;;89.65;54.50;;;;;;;8.42;100.00;100678.16;4991872;28;20110;-77
2023/02/23 08:07:26;;;;;;;92.65;54.08;;;;;;;8.41;100.00;100682.53;4990959;28;20113;-77
2023/02/23 08:09:53;;;;;;;92.30;57.67;;;;;;;8.36;100.00;100683.91;4994386;28;20072;-78
2023/02/23 08:12:20;;;;;;;96.95;61.00;;;;;;;8.42;100.00;100699.84;4993607;28;20054;-78
2023/02/23 08:14:46;;;;;;;94.72;57.60;;;;;;;8.34;100.00;100691.06;4991308;28;20081;-76
2023/02/23 08:17:14;;;;;;;95.30;57.58;;;;;;;8.31;100.00;100706.00;4993556;28;20063;-79
2023/02/23 08:19:41;;;;;;;93.18;57.63;;;;;;;8.31;100.00;100706.00;4995849;28;20418;-78
2023/02/23 08:22:08;;;;;;;93.60;57.28;;;;;;;8.24;100.00;100694.47;4996083;28;20084;-77
2023/02/23 08:24:35;;;;;;;94.18;57.65;;;;;;;8.20;100.00;100703.53;4998012;28;20129;-78
2023/02/23 08:27:03;;;;;;;99.07;58.10;;;;;;;8.23;100.00;100705.84;4996001;28;20046;-79
2023/02/23 08:29:29;;;;;;;97.28;59.08;;;;;;;8.29;100.00;100712.31;4994263;28;20129;-79
2023/02/23 08:31:56;;;;;;;103.13;59.78;;;;;;;8.21;100.00;100710.38;4995709;28;20053;-76
2023/02/23 08:34:24;;;;;;;98.47;59.60;;;;;;;8.25;100.00;100716.97;4994425;28;20046;-79
2023/02/23 08:36:52;;;;;;;92.25;57.28;;;;;;;8.34;100.00;100714.53;4994572;28;20580;-78
2023/02/23 08:39:19;;;;;;;97.63;59.25;;;;;;;8.34;100.00;100710.13;4993768;28;20385;-77
2023/02/23 08:41:46;;;;;;;99.00;60.65;;;;;;;8.33;100.00;100721.53;4993260;28;20121;-79
2023/02/23 08:44:12;;;;;;;100.82;58.42;;;;;;;8.33;100.00;100721.53;4992951;28;20089;-78
2023/02/23 08:46:39;;;;;;;96.60;58.00;;;;;;;8.37;100.00;100728.09;4992547;28;20062;-78
2023/02/23 08:49:05;;;;;;;104.30;60.10;;;;;;;8.38;100.00;100715.91;4993005;28;20129;-77
2023/02/23 08:51:34;;;;;;;99.78;59.28;;;;;;;8.37;100.00;100717.69;4993868;28;20149;-76
2023/02/23 08:54:01;;;;;;;100.70;59.85;;;;;;;8.41;100.00;100734.69;4993899;28;20409;-77
2023/02/23 08:56:27;;;;;;;105.22;60.97;;;;;;;8.46;100.00;100721.25;4992089;28;20125;-78
2023/02/23 08:58:54;;;;;;;97.43;60.60;;;;;;;8.53;100.00;100730.13;4991748;28;20500;-76
2023/02/23 09:01:21;;;;;;;104.22;60.88;;;;;;;8.49;100.00;100731.41;4992287;28;20100;-78
2023/02/23 09:03:48;;;;;;;100.72;59.47;;;;;;;8.55;100.00;100728.19;4990091;28;20533;-77
2023/02/23 09:06:18;;;;;;;96.57;58.63;;;;;;;8.58;100.00;100730.53;4993102;28;20157;-77
2023/02/23 09:08:46;;;;;;;102.38;59.25;;;;;;;8.63;100.00;100738.75;4991843;28;20580;-77
2023/02/23 09:11:13;;;;;;;96.53;57.47;;;;;;;8.71;100.00;100728.44;4993101;28;20141;-78
2023/02/23 09:13:40;;;;;;;94.95;57.65;;;;;;;8.68;100.00;100741.75;4991965;28;20053;-75
2023/02/23 09:16:07;;;;;;;97.95;58.28;;;;;;;8.68;100.00;100743.56;4989077;28;20563;-77
2023/02/23 09:18:34;;;;;;;92.82;56.53;;;;;;;8.65;100.00;100735.03;4996077;28;20081;-76
2023/02/23 09:21:05;;;;;;;87.90;54.65;;;;;;;8.66;100.00;100738.47;4996536;28;20046;-75
2023/02/23 09:23:37;;;;;;;79.18;51.95;;;;;;;8.65;100.00;100739.44;4996774;28;20080;-76
2023/02/23 09:26:06;;;;;;;82.45;51.17;;;;;;;8.63;100.00;100736.16;4998059;28;20053;-76
2023/02/23 09:28:33;;;;;;;79.70;51.33;;;;;;;8.62;100.00;100739.72;4996539;28;20141;-78
2023/02/23 09:31:06;;;;;;;74.45;49.60;;;;;;;8.64;100.00;100750.84;5007939;28;20066;-76
2023/02/23 09:33:32;;;;;;;76.75;49.05;;;;;;;8.65;100.00;100747.25;5006133;28;20049;-77
2023/02/23 09:35:59;;;;;;;70.05;46.45;;;;;;;8.55;100.00;100747.28;5005344;28;20054;-75
2023/02/23 09:38:26;;;;;;;70.15;46.38;;;;;;;8.57;100.00;100754.97;5008457;28;20495;-77
2023/02/23 09:40:54;;;;;;;66.60;43.97;;;;;;;8.60;100.00;100750.28;5006473;28;20080;-78
2023/02/23 09:43:29;;;;;;;65.05;42.88;;;;;;;8.70;100.00;100760.72;5006074;28;20148;-76
2023/02/23 09:46:01;;;;;;;57.53;41.80;;;;;;;8.64;100.00;100756.88;5001900;28;20128;-77
2023/02/23 09:48:28;;;;;;;60.53;43.13;;;;;;;8.61;100.00;100758.94;5006576;28;20125;-75
2023/02/23 09:50:57;;;;;;;59.90;41.83;;;;;;;8.55;100.00;100757.72;5007470;28;20125;-77
2023/02/23 09:53:35;;;;;;;59.38;42.78;;;;;;;8.56;100.00;100761.13;5004360;28;20046;-77
2023/02/23 09:56:08;;;;;;;59.80;43.03;;;;;;;8.53;100.00;100764.84;5004935;28;20042;-76
2023/02/23 09:58:36;;;;;;;60.13;43.28;;;;;;;8.51;100.00;100763.34;5004158;28;20049;-75
2023/02/23 10:01:23;;;;;;;64.22;43.30;;;;;;;8.49;100.00;100773.13;5001298;28;20125;-76
2023/02/23 10:03:56;;;;;;;65.43;44.97;;;;;;;8.49;100.00;100778.34;4997369;28;20082;-76
2023/02/23 10:06:23;;;;;;;;;;;;;;;8.51;100.00;100785.03;5002820;28;20084;-76
2023/02/23 10:09:00;;;;;;;75.25;46.25;;;;;;;8.48;100.00;100777.50;5005737;28;19928;-78
2023/02/23 10:11:32;;;;;;;78.82;48.20;;;;;;;8.47;100.00;100780.25;5006004;28;20132;-77
2023/02/23 10:14:12;;;;;;;82.75;49.55;;;;;;;8.50;100.00;100786.03;5001955;28;20472;-78
2023/02/23 10:16:49;;;;;;;87.35;49.25;;;;;;;8.53;100.00;100785.72;4987715;28;20129;-76
2023/02/23 10:19:24;;;;;;;88.25;50.85;;;;;;;8.49;100.00;100788.75;4988954;28;20129;-80
2023/02/23 10:21:56;;;;;;;86.22;48.95;;;;;;;8.48;100.00;100787.94;4985673;28;20055;-77
2023/02/23 10:24:27;;;;;;;81.28;46.95;;;;;;;8.48;100.00;100789.72;4984528;28;20058;-77
2023/02/23 10:26:56;;;;;;;89.60;48.25;;;;;;;8.44;100.00;100785.75;4994535;28;20136;-77
2023/02/23 10:29:29;;;;;;;83.85;48.10;;;;;;;8.46;100.00;100794.25;4994887;28;20104;-77
2023/02/23 10:31:58;;;;;;;85.50;46.65;;;;;;;8.47;100.00;100785.47;4990713;28;20054;-75
2023/02/23 10:34:26;;;;;;;88.40;47.83;;;;;;;8.47;100.00;100793.28;4989539;28;20141;-76
2023/02/23 10:36:59;;;;;;;84.00;47.60;;;;;;;8.48;100.00;100794.94;4994124;28;20136;-74
2023/02/23 10:39:26;;;;;;;86.53;48.95;;;;;;;8.50;100.00;100798.25;4994457;28;20051;-75
2023/02/23 10:41:54;;;;;;;90.95;48.90;;;;;;;8.57;100.00;100799.31;4994068;28;20050;-76
2023/02/23 10:44:25;;;;;;;93.95;49.72;;;;;;;8.60;100.00;100799.84;4993171;28;20157;-74
2023/02/23 10:46:57;;;;;;;93.03;49.13;;;;;;;8.60;100.00;100802.47;5002049;28;20112;-76
2023/02/23 10:49:30;;;;;;;90.25;47.20;;;;;;;8.68;100.00;100801.78;5004722;28;20125;-75
2023/02/23 10:52:01;;;;;;;;;;;;;;;8.69;100.00;100806.03;5004453;28;20042;-77
2023/02/23 10:54:35;;;;;;;85.80;47.72;;;;;;;8.63;100.00;100807.41;5007493;28;20020;-77
2023/02/23 10:57:03;;;;;;;90.47;48.95;;;;;;;8.64;100.00;100803.00;5006154;28;20125;-77
2023/02/23 10:59:32;;;;;;;86.43;45.90;;;;;;;8.58;100.00;100804.38;5002838;28;20129;-79
2023/02/23 11:01:58;;;;;;;90.30;49.25;;;;;;;8.67;100.00;100807.13;5004659;28;20041;-77
2023/02/23 11:04:27;;;;;;;84.78;46.10;;;;;;;8.61;100.00;100808.50;4997528;28;20103;-78
2023/02/23 11:07:07;;;;;;;88.25;47.20;;;;;;;8.64;100.00;100797.78;4996737;28;20110;-77
2023/02/23 11:09:35;;;;;;;81.65;47.03;;;;;;;8.65;100.00;100797.66;4995635;28;20057;-77
2023/02/23 11:12:06;;;;;;;88.20;47.72;;;;;;;8.70;100.00;100814.66;4995209;28;20046;-78
2023/02/23 11:14:34;;;;;;;84.03;45.72;;;;;;;8.59;100.00;100805.19;4995367;28;20125;-75
2023/02/23 11:17:00;;;;;;;81.63;44.35;;;;;;;8.55;100.00;100806.44;4995118;28;20497;-76
2023/02/23 11:19:34;;;;;;;86.35;44.25;;;;;;;8.56;100.00;100811.53;4995754;28;20050;-77
2023/02/23 11:22:01;;;;;;;81.95;42.70;;;;;;;8.50;100.00;100806.06;4994038;28;20053;-78
2023/02/23 11:24:32;;;;;;;82.85;42.63;;;;;;;8.48;100.00;100810.59;4995052;28;20078;-77
2023/02/23 11:27:02;;;;;;;84.55;43.00;;;;;;;8.43;100.00;100811.00;4993661;28;20159;-77
2023/02/23 11:29:33;;;;;;;85.53;42.67;;;;;;;8.37;100.00;100802.91;4996138;28;20057;-77
2023/02/23 11:32:08;;;;;;;85.90;42.53;;;;;;;8.37;100.00;100806.34;4994246;28;20053;-77
2023/02/23 11:34:39;;;;;;;87.43;43.50;;;;;;;8.36;100.00;100803.84;4995856;28;20093;-77
2023/02/23 11:37:18;;;;;;;86.00;42.13;;;;;;;8.28;100.00;100807.94;4995162;28;20109;-76
2023/02/23 11:39:51;;;;;;;84.22;42.15;;;;;;;8.28;100.00;100805.34;4994737;28;20105;-78
2023/02/23 11:42:20;;;;;;;89.25;42.47;;;;;;;8.32;100.00;100813.72;4994953;28;20053;-77
2023/02/23 11:44:51;;;;;;;88.10;42.90;;;;;;;8.33;100.00;100812.78;4994597;28;20081;-77
2023/02/23 11:47:22;;;;;;;90.72;43.33;;;;;;;8.36;100.00;100801.25;4992621;28;20154;-77
2023/02/23 11:49:49;;;;;;;87.93;42.80;;;;;;;8.38;100.00;100801.94;4996301;28;20416;-77
2023/02/23 11:52:19;;;;;;;81.28;40.70;;;;;;;8.43;100.00;100799.75;4994324;28;20141;-77
2023/02/23 11:54:52;;;;;;;87.82;41.88;;;;;;;8.41;100.00;100805.09;4985644;28;20054;-78
2023/02/23 11:57:23;;;;;;;82.25;42.00;;;;;;;8.46;100.00;100800.28;4989649;28;20042;-77
2023/02/23 11:59:51;;;;;;;84.53;41.67;;;;;;;8.46;100.00;100799.47;4993447;28;20163;-78
2023/02/23 12:02:24;;;;;;;88.28;41.55;;;;;;;8.46;100.00;100795.06;4991488;28;20101;-76
2023/02/23 12:04:53;;;;;;;87.15;41.45;;;;;;;8.48;100.00;100802.78;4993863;28;20106;-77
2023/02/23 12:07:40;;;;;;;80.00;39.72;;;;;;;8.40;100.00;100800.84;4993502;28;20089;-77
2023/02/23 12:10:14;;;;;;;76.82;39.55;;;;;;;8.44;100.00;100790.97;4991743;28;20571;-77
2023/02/23 12:12:48;;;;;;;78.50;39.53;;;;;;;8.46;100.00;100794.25;4988193;28;20054;-77
2023/02/23 12:15:24;;;;;;;82.68;40.25;;;;;;;8.46;100.00;100789.88;4990866;28;20138;-77
2023/02/23 12:17:58;;;;;;;82.63;40.65;;;;;;;8.40;100.00;100793.03;4993542;28;20425;-77
2023/02/23 12:20:27;;;;;;;83.97;41.03;;;;;;;8.39;100.00;100799.19;5005722;28;20122;-77
2023/02/23 12:22:58;;;;;;;77.57;40.92;;;;;;;8.38;100.00;100801.94;5006103;28;20100;-77
2023/02/23 12:25:30;;;;;;;88.53;41.00;;;;;;;8.46;100.00;100802.09;5003634;28;20056;-76
2023/02/23 12:28:04;;;;;;;85.55;42.35;;;;;;;8.47;100.00;100793.28;5004733;28;20073;-76
2023/02/23 12:30:40;;;;;;;79.18;40.38;;;;;;;8.53;100.00;100792.72;5005338;28;20045;-76
2023/02/23 12:33:12;;;;;;;84.03;41.17;;;;;;;8.62;100.00;100799.72;4999361;28;20125;-76
2023/02/23 12:35:46;;;;;;;89.60;39.92;;;;;;;8.58;100.00;100793.94;5003674;28;20102;-76
2023/02/23 12:38:19;;;;;;;81.93;41.20;;;;;;;8.56;100.00;100795.88;5005280;28;20492;-75
2023/02/23 12:40:47;;;;;;;77.10;37.95;;;;;;;8.56;100.00;100800.25;5003698;28;20078;-76
2023/02/23 12:43:19;;;;;;;81.65;40.33;;;;;;;8.56;100.00;100802.88;5003049;28;20477;-76